sensor_id;sensor_type;location;lat;lon;timestamp;pressure;altitude;pressure_sealevel;temperature;humidity
73748;BME280;62056;52.130;5.428;2023-02-01T00:01:07;102183.09;;;4.83;68.21
73748;BME280;62056;52.130;5.428;2023-02-01T00:03:33;102172.31;;;4.85;68.58
73748;BME280;62056;52.130;5.428;2023-02-01T00:06:00;102170.06;;;4.89;69.10
73748;BME280;62056;52.130;5.428;2023-02-01T00:08:27;102161.75;;;4.92;68.87
73748;BME280;62056;52.130;5.428;2023-02-01T00:11:00;102173.69;;;4.94;68.80
73748;BME280;62056;52.130;5.428;2023-02-01T00:13:31;102170.81;;;4.96;68.65
73748;BME280;62056;52.130;5.428;2023-02-01T00:16:06;102180.34;;;4.97;69.00
73748;BME280;62056;52.130;5.428;2023-02-01T00:18:34;102175.66;;;4.99;69.37
73748;BME280;62056;52.130;5.428;2023-02-01T00:21:01;102168.56;;;4.99;69.44
73748;BME280;62056;52.130;5.428;2023-02-01T00:23:27;102166.72;;;5.00;69.47
73748;BME280;62056;52.130;5.428;2023-02-01T00:25:54;102168.94;;;5.03;70.05
73748;BME280;62056;52.130;5.428;2023-02-01T00:28:21;102164.25;;;5.05;70.43
73748;BME280;62056;52.130;5.428;2023-02-01T00:30:55;102158.53;;;5.08;71.70
73748;BME280;62056;52.130;5.428;2023-02-01T00:33:23;102154.69;;;5.11;70.77
73748;BME280;62056;52.130;5.428;2023-02-01T00:35:49;102163.78;;;5.15;71.01
73748;BME280;62056;52.130;5.428;2023-02-01T00:38:16;102155.63;;;5.16;71.71
73748;BME280;62056;52.130;5.428;2023-02-01T00:40:43;102157.03;;;5.19;70.78
73748;BME280;62056;52.130;5.428;2023-02-01T00:43:10;102159.44;;;5.20;70.74
73748;BME280;62056;52.130;5.428;2023-02-01T00:45:36;102161.66;;;5.23;71.35
73748;BME280;62056;52.130;5.428;2023-02-01T00:48:03;102162.44;;;5.24;71.18
73748;BME280;62056;52.130;5.428;2023-02-01T00:50:30;102166.47;;;5.26;71.11
73748;BME280;62056;52.130;5.428;2023-02-01T00:52:56;102159.94;;;5.29;70.75
73748;BME280;62056;52.130;5.428;2023-02-01T00:55:23;102157.31;;;5.29;71.38
73748;BME280;62056;52.130;5.428;2023-02-01T00:57:50;102160.78;;;5.30;71.09
73748;BME280;62056;52.130;5.428;2023-02-01T01:00:16;102158.16;;;5.30;71.21
73748;BME280;62056;52.130;5.428;2023-02-01T01:02:43;102162.59;;;5.29;70.63
73748;BME280;62056;52.130;5.428;2023-02-01T01:05:10;102164.22;;;5.30;71.37
73748;BME280;62056;52.130;5.428;2023-02-01T01:07:37;102155.84;;;5.33;73.02
73748;BME280;62056;52.130;5.428;2023-02-01T01:10:03;102158.50;;;5.33;71.64
73748;BME280;62056;52.130;5.428;2023-02-01T01:12:30;102150.75;;;5.38;72.17
73748;BME280;62056;52.130;5.428;2023-02-01T01:14:57;102151.13;;;5.42;71.79
73748;BME280;62056;52.130;5.428;2023-02-01T01:17:23;102142.97;;;5.43;72.05
73748;BME280;62056;52.130;5.428;2023-02-01T01:19:50;102129.34;;;5.46;71.87
73748;BME280;62056;52.130;5.428;2023-02-01T01:22:16;102140.69;;;5.47;71.85
73748;BME280;62056;52.130;5.428;2023-02-01T01:24:44;102139.69;;;5.48;71.43
73748;BME280;62056;52.130;5.428;2023-02-01T01:27:10;102151.63;;;5.51;71.78
73748;BME280;62056;52.130;5.428;2023-02-01T01:29:37;102141.06;;;5.51;72.06
73748;BME280;62056;52.130;5.428;2023-02-01T01:32:04;102134.34;;;5.55;71.80
73748;BME280;62056;52.130;5.428;2023-02-01T01:34:30;102135.13;;;5.55;71.62
73748;BME280;62056;52.130;5.428;2023-02-01T01:36:57;102127.00;;;5.57;71.51
73748;BME280;62056;52.130;5.428;2023-02-01T01:39:24;102131.47;;;5.56;71.92
73748;BME280;62056;52.130;5.428;2023-02-01T01:41:50;102130.22;;;5.59;72.14
73748;BME280;62056;52.130;5.428;2023-02-01T01:47:21;102128.75;;;5.63;72.12
73748;BME280;62056;52.130;5.428;2023-02-01T01:49:48;102137.28;;;5.65;71.73
73748;BME280;62056;52.130;5.428;2023-02-01T01:52:14;102132.00;;;5.65;72.02
73748;BME280;62056;52.130;5.428;2023-02-01T01:54:44;102114.31;;;5.65;72.03
73748;BME280;62056;52.130;5.428;2023-02-01T01:57:24;102115.69;;;5.68;71.99
73748;BME280;62056;52.130;5.428;2023-02-01T02:00:01;102116.88;;;5.72;72.04
73748;BME280;62056;52.130;5.428;2023-02-01T02:02:29;102105.88;;;5.75;71.95
73748;BME280;62056;52.130;5.428;2023-02-01T02:04:56;102105.41;;;5.78;72.03
73748;BME280;62056;52.130;5.428;2023-02-01T02:07:27;102109.69;;;5.79;71.49
73748;BME280;62056;52.130;5.428;2023-02-01T02:09:56;102108.44;;;5.82;71.73
73748;BME280;62056;52.130;5.428;2023-02-01T02:12:26;102095.00;;;5.83;71.75
73748;BME280;62056;52.130;5.428;2023-02-01T02:14:53;102105.56;;;5.83;71.76
73748;BME280;62056;52.130;5.428;2023-02-01T02:31:51;102079.41;;;5.94;72.45
73748;BME280;62056;52.130;5.428;2023-02-01T02:34:40;102077.38;;;5.96;72.52
73748;BME280;62056;52.130;5.428;2023-02-01T02:37:34;102082.22;;;5.99;72.88
73748;BME280;62056;52.130;5.428;2023-02-01T02:45:53;102067.91;;;6.06;73.23
73748;BME280;62056;52.130;5.428;2023-02-01T02:48:51;102066.06;;;6.07;73.04
73748;BME280;62056;52.130;5.428;2023-02-01T02:51:24;102071.94;;;6.09;73.02
73748;BME280;62056;52.130;5.428;2023-02-01T02:54:17;102070.66;;;6.12;73.35
73748;BME280;62056;52.130;5.428;2023-02-01T02:57:06;102064.59;;;6.11;72.99
73748;BME280;62056;52.130;5.428;2023-02-01T02:59:55;102058.25;;;6.12;73.49
73748;BME280;62056;52.130;5.428;2023-02-01T03:02:42;102043.25;;;6.13;73.05
73748;BME280;62056;52.130;5.428;2023-02-01T03:05:33;102039.34;;;6.15;73.17
73748;BME280;62056;52.130;5.428;2023-02-01T03:08:04;102041.97;;;6.15;73.19
73748;BME280;62056;52.130;5.428;2023-02-01T03:13:05;102043.00;;;6.14;73.03
73748;BME280;62056;52.130;5.428;2023-02-01T03:15:43;102041.75;;;6.17;72.87
73748;BME280;62056;52.130;5.428;2023-02-01T03:18:21;102041.97;;;6.15;72.87
73748;BME280;62056;52.130;5.428;2023-02-01T03:20:51;102046.47;;;6.15;72.77
73748;BME280;62056;52.130;5.428;2023-02-01T03:23:23;102040.59;;;6.13;72.42
73748;BME280;62056;52.130;5.428;2023-02-01T03:25:53;102039.78;;;6.12;72.85
73748;BME280;62056;52.130;5.428;2023-02-01T03:28:23;102048.97;;;6.10;72.88
73748;BME280;62056;52.130;5.428;2023-02-01T03:30:50;102037.59;;;6.09;72.60
73748;BME280;62056;52.130;5.428;2023-02-01T03:33:22;102029.91;;;6.07;72.69
73748;BME280;62056;52.130;5.428;2023-02-01T03:36:24;102037.44;;;6.04;72.18
73748;BME280;62056;52.130;5.428;2023-02-01T03:41:40;102041.56;;;6.00;72.65
73748;BME280;62056;52.130;5.428;2023-02-01T03:44:16;102053.19;;;5.99;72.28
73748;BME280;62056;52.130;5.428;2023-02-01T03:46:49;102054.44;;;5.96;72.68
73748;BME280;62056;52.130;5.428;2023-02-01T03:49:26;102044.91;;;5.95;72.56
73748;BME280;62056;52.130;5.428;2023-02-01T03:51:55;102047.72;;;5.94;72.47
73748;BME280;62056;52.130;5.428;2023-02-01T03:54:25;102055.66;;;5.94;72.58
73748;BME280;62056;52.130;5.428;2023-02-01T03:56:56;102056.09;;;5.91;72.82
73748;BME280;62056;52.130;5.428;2023-02-01T03:59:24;102053.47;;;5.91;73.10
73748;BME280;62056;52.130;5.428;2023-02-01T04:01:51;102050.81;;;5.91;72.98
73748;BME280;62056;52.130;5.428;2023-02-01T04:04:19;102052.66;;;5.90;73.19
73748;BME280;62056;52.130;5.428;2023-02-01T04:06:49;102049.25;;;5.90;73.62
73748;BME280;62056;52.130;5.428;2023-02-01T04:09:16;102043.72;;;5.91;73.22
73748;BME280;62056;52.130;5.428;2023-02-01T04:11:43;102040.06;;;5.92;73.53
73748;BME280;62056;52.130;5.428;2023-02-01T04:14:10;102044.09;;;5.95;73.46
73748;BME280;62056;52.130;5.428;2023-02-01T04:16:37;102034.91;;;5.97;73.66
73748;BME280;62056;52.130;5.428;2023-02-01T04:19:03;102046.06;;;5.99;73.57
73748;BME280;62056;52.130;5.428;2023-02-01T04:21:30;102048.47;;;6.01;72.99
73748;BME280;62056;52.130;5.428;2023-02-01T04:23:57;102056.53;;;6.06;73.92
73748;BME280;62056;52.130;5.428;2023-02-01T04:26:24;102055.50;;;6.07;73.32
73748;BME280;62056;52.130;5.428;2023-02-01T04:28:51;102065.03;;;6.08;73.31
73748;BME280;62056;52.130;5.428;2023-02-01T04:31:19;102062.75;;;6.12;72.97
73748;BME280;62056;52.130;5.428;2023-02-01T04:33:52;102061.72;;;6.13;73.21
73748;BME280;62056;52.130;5.428;2023-02-01T04:36:20;102061.47;;;6.14;72.96
73748;BME280;62056;52.130;5.428;2023-02-01T04:38:51;102052.31;;;6.17;72.84
73748;BME280;62056;52.130;5.428;2023-02-01T04:41:19;102048.63;;;6.18;72.76
73748;BME280;62056;52.130;5.428;2023-02-01T04:43:46;102048.06;;;6.16;72.64
73748;BME280;62056;52.130;5.428;2023-02-01T04:46:13;102040.94;;;6.16;72.87
73748;BME280;62056;52.130;5.428;2023-02-01T04:48:40;102054.38;;;6.15;72.89
73748;BME280;62056;52.130;5.428;2023-02-01T04:51:07;102044.03;;;6.13;72.45
73748;BME280;62056;52.130;5.428;2023-02-01T04:53:34;102038.19;;;6.11;73.33
73748;BME280;62056;52.130;5.428;2023-02-01T04:56:00;102043.69;;;6.10;72.53
73748;BME280;62056;52.130;5.428;2023-02-01T04:58:27;102038.03;;;6.06;72.89
73748;BME280;62056;52.130;5.428;2023-02-01T05:00:53;102040.94;;;6.04;72.98
73748;BME280;62056;52.130;5.428;2023-02-01T05:03:20;102044.00;;;6.01;72.99
73748;BME280;62056;52.130;5.428;2023-02-01T05:05:47;102029.41;;;5.99;73.32
73748;BME280;62056;52.130;5.428;2023-02-01T05:08:15;102036.53;;;5.98;73.68
73748;BME280;62056;52.130;5.428;2023-02-01T05:10:41;102033.91;;;5.98;73.49
73748;BME280;62056;52.130;5.428;2023-02-01T05:13:09;102053.97;;;5.99;73.41
73748;BME280;62056;52.130;5.428;2023-02-01T05:15:55;102033.06;;;5.98;73.52
73748;BME280;62056;52.130;5.428;2023-02-01T05:18:22;102029.06;;;5.95;73.64
73748;BME280;62056;52.130;5.428;2023-02-01T05:20:48;102031.88;;;5.94;73.76
73748;BME280;62056;52.130;5.428;2023-02-01T05:23:15;102036.38;;;5.93;73.46
73748;BME280;62056;52.130;5.428;2023-02-01T05:25:42;102028.66;;;5.92;73.81
73748;BME280;62056;52.130;5.428;2023-02-01T05:28:09;102025.81;;;5.93;73.80
73748;BME280;62056;52.130;5.428;2023-02-01T05:30:35;102039.81;;;5.94;73.91
73748;BME280;62056;52.130;5.428;2023-02-01T05:33:04;102050.19;;;5.95;73.87
73748;BME280;62056;52.130;5.428;2023-02-01T05:35:31;102047.31;;;5.97;74.05
73748;BME280;62056;52.130;5.428;2023-02-01T05:37:57;102052.38;;;5.98;74.05
73748;BME280;62056;52.130;5.428;2023-02-01T05:40:24;102046.06;;;5.99;73.99
73748;BME280;62056;52.130;5.428;2023-02-01T05:42:51;102054.56;;;6.01;74.20
73748;BME280;62056;52.130;5.428;2023-02-01T05:45:17;102051.91;;;6.01;73.87
73748;BME280;62056;52.130;5.428;2023-02-01T05:47:44;102045.84;;;6.01;74.56
73748;BME280;62056;52.130;5.428;2023-02-01T05:50:11;102058.00;;;6.02;74.37
73748;BME280;62056;52.130;5.428;2023-02-01T05:52:37;102058.81;;;6.02;74.09
73748;BME280;62056;52.130;5.428;2023-02-01T05:55:04;102046.22;;;6.04;74.16
73748;BME280;62056;52.130;5.428;2023-02-01T05:57:31;102055.94;;;6.04;73.69
73748;BME280;62056;52.130;5.428;2023-02-01T05:59:57;102053.09;;;6.05;74.24
73748;BME280;62056;52.130;5.428;2023-02-01T06:02:26;102066.06;;;6.07;74.40
73748;BME280;62056;52.130;5.428;2023-02-01T06:04:52;102067.66;;;6.08;74.60
73748;BME280;62056;52.130;5.428;2023-02-01T06:07:19;102063.78;;;6.11;74.52
73748;BME280;62056;52.130;5.428;2023-02-01T06:09:46;102060.31;;;6.10;74.22
73748;BME280;62056;52.130;5.428;2023-02-01T06:12:12;102064.59;;;6.11;74.23
73748;BME280;62056;52.130;5.428;2023-02-01T06:14:40;102057.47;;;6.12;74.46
73748;BME280;62056;52.130;5.428;2023-02-01T06:17:07;102053.81;;;6.13;74.63
73748;BME280;62056;52.130;5.428;2023-02-01T06:19:34;102058.25;;;6.12;74.83
73748;BME280;62056;52.130;5.428;2023-02-01T06:22:01;102054.38;;;6.15;74.61
73748;BME280;62056;52.130;5.428;2023-02-01T06:24:27;102046.69;;;6.13;74.56
73748;BME280;62056;52.130;5.428;2023-02-01T06:26:54;102052.75;;;6.14;74.56
73748;BME280;62056;52.130;5.428;2023-02-01T06:29:20;102051.16;;;6.13;74.67
73748;BME280;62056;52.130;5.428;2023-02-01T06:31:47;102058.25;;;6.12;75.44
73748;BME280;62056;52.130;5.428;2023-02-01T06:34:14;102064.00;;;6.09;74.89
73748;BME280;62056;52.130;5.428;2023-02-01T06:36:40;102072.16;;;6.07;74.72
73748;BME280;62056;52.130;5.428;2023-02-01T06:39:07;102062.84;;;6.05;74.48
73748;BME280;62056;52.130;5.428;2023-02-01T06:41:33;102074.09;;;6.00;74.97
73748;BME280;62056;52.130;5.428;2023-02-01T06:44:01;102073.50;;;5.98;74.75
73748;BME280;62056;52.130;5.428;2023-02-01T06:46:27;102064.19;;;5.96;74.71
73748;BME280;62056;52.130;5.428;2023-02-01T06:48:54;102087.16;;;5.95;74.91
73748;BME280;62056;52.130;5.428;2023-02-01T06:51:23;102078.63;;;5.93;74.78
73748;BME280;62056;52.130;5.428;2023-02-01T06:53:50;102076.44;;;5.90;75.16
73748;BME280;62056;52.130;5.428;2023-02-01T06:56:17;102080.34;;;5.87;75.31
73748;BME280;62056;52.130;5.428;2023-02-01T06:58:44;102075.06;;;5.87;75.07
73748;BME280;62056;52.130;5.428;2023-02-01T07:01:12;102085.84;;;5.86;74.93
73748;BME280;62056;52.130;5.428;2023-02-01T07:03:39;102075.28;;;5.86;75.27
73748;BME280;62056;52.130;5.428;2023-02-01T07:06:07;102068.16;;;5.86;75.29
73748;BME280;62056;52.130;5.428;2023-02-01T07:08:36;102062.88;;;5.86;74.98
73748;BME280;62056;52.130;5.428;2023-02-01T07:11:08;102067.34;;;5.86;75.20
73748;BME280;62056;52.130;5.428;2023-02-01T07:13:35;102066.31;;;5.87;75.91
73748;BME280;62056;52.130;5.428;2023-02-01T07:16:04;102068.94;;;5.87;75.67
73748;BME280;62056;52.130;5.428;2023-02-01T07:18:31;102068.72;;;5.88;75.53
73748;BME280;62056;52.130;5.428;2023-02-01T07:20:58;102059.78;;;5.90;75.70
73748;BME280;62056;52.130;5.428;2023-02-01T07:23:26;102068.50;;;5.90;75.46
73748;BME280;62056;52.130;5.428;2023-02-01T07:25:58;102066.47;;;5.92;75.44
73748;BME280;62056;52.130;5.428;2023-02-01T07:28:26;102076.19;;;5.92;75.95
73748;BME280;62056;52.130;5.428;2023-02-01T07:30:54;102063.56;;;5.94;75.77
73748;BME280;62056;52.130;5.428;2023-02-01T07:33:23;102067.88;;;5.95;75.65
73748;BME280;62056;52.130;5.428;2023-02-01T07:35:53;102072.94;;;5.96;75.86
73748;BME280;62056;52.130;5.428;2023-02-01T07:38:20;102075.09;;;5.99;76.01
73748;BME280;62056;52.130;5.428;2023-02-01T07:40:47;102070.56;;;6.06;76.65
73748;BME280;62056;52.130;5.428;2023-02-01T07:43:14;102074.09;;;6.12;76.95
73748;BME280;62056;52.130;5.428;2023-02-01T07:45:41;102068.75;;;6.19;77.21
73748;BME280;62056;52.130;5.428;2023-02-01T07:48:08;102070.03;;;6.28;77.38
73748;BME280;62056;52.130;5.428;2023-02-01T07:50:34;102063.84;;;6.34;77.26
73748;BME280;62056;52.130;5.428;2023-02-01T07:53:01;102071.66;;;6.41;77.42
73748;BME280;62056;52.130;5.428;2023-02-01T07:55:28;102081.31;;;6.47;76.72
73748;BME280;62056;52.130;5.428;2023-02-01T07:57:58;102078.56;;;6.54;77.38
73748;BME280;62056;52.130;5.428;2023-02-01T08:00:25;102073.16;;;6.60;77.14
73748;BME280;62056;52.130;5.428;2023-02-01T08:03:10;102080.41;;;6.65;77.17
73748;BME280;62056;52.130;5.428;2023-02-01T08:05:37;102085.38;;;6.73;77.38
73748;BME280;62056;52.130;5.428;2023-02-01T08:08:04;102091.81;;;6.77;77.71
73748;BME280;62056;52.130;5.428;2023-02-01T08:10:31;102080.75;;;6.80;77.74
73748;BME280;62056;52.130;5.428;2023-02-01T08:12:58;102096.41;;;6.82;76.45
73748;BME280;62056;52.130;5.428;2023-02-01T08:15:29;102085.34;;;6.85;77.71
73748;BME280;62056;52.130;5.428;2023-02-01T08:17:56;102084.44;;;6.91;77.54
73748;BME280;62056;52.130;5.428;2023-02-01T08:20:24;102075.69;;;6.91;77.52
73748;BME280;62056;52.130;5.428;2023-02-01T08:22:53;102087.19;;;6.96;77.35
73748;BME280;62056;52.130;5.428;2023-02-01T08:25:20;102076.16;;;6.99;77.55
73748;BME280;62056;52.130;5.428;2023-02-01T08:27:47;102075.69;;;7.02;76.53
73748;BME280;62056;52.130;5.428;2023-02-01T08:30:14;102060.16;;;7.06;76.96
73748;BME280;62056;52.130;5.428;2023-02-01T08:32:41;102063.63;;;7.06;76.00
73748;BME280;62056;52.130;5.428;2023-02-01T08:35:08;102057.72;;;7.16;76.23
73748;BME280;62056;52.130;5.428;2023-02-01T08:37:34;102062.22;;;7.16;76.38
73748;BME280;62056;52.130;5.428;2023-02-01T08:40:01;102063.84;;;7.17;75.60
73748;BME280;62056;52.130;5.428;2023-02-01T08:42:28;102061.19;;;7.17;75.09
73748;BME280;62056;52.130;5.428;2023-02-01T08:45:14;102051.25;;;7.24;75.79
73748;BME280;62056;52.130;5.428;2023-02-01T08:47:40;102055.84;;;7.28;75.95
73748;BME280;62056;52.130;5.428;2023-02-01T08:50:15;102060.56;;;7.26;75.23
73748;BME280;62056;52.130;5.428;2023-02-01T08:52:42;102054.56;;;7.31;75.64
73748;BME280;62056;52.130;5.428;2023-02-01T08:55:10;102066.88;;;7.37;75.43
73748;BME280;62056;52.130;5.428;2023-02-01T08:57:37;102067.44;;;7.39;75.58
73748;BME280;62056;52.130;5.428;2023-02-01T09:00:07;102067.78;;;7.43;75.00
73748;BME280;62056;52.130;5.428;2023-02-01T09:02:36;102063.63;;;7.47;75.10
73748;BME280;62056;52.130;5.428;2023-02-01T09:05:04;102057.31;;;7.48;74.75
73748;BME280;62056;52.130;5.428;2023-02-01T09:07:34;102052.09;;;7.53;74.42
73748;BME280;62056;52.130;5.428;2023-02-01T09:10:04;102042.88;;;7.56;73.76
73748;BME280;62056;52.130;5.428;2023-02-01T09:12:33;102054.38;;;7.61;73.99
73748;BME280;62056;52.130;5.428;2023-02-01T09:15:00;102046.66;;;7.60;73.82
73748;BME280;62056;52.130;5.428;2023-02-01T09:17:28;102064.59;;;7.69;74.23
73748;BME280;62056;52.130;5.428;2023-02-01T09:19:56;102047.84;;;7.81;74.29
73748;BME280;62056;52.130;5.428;2023-02-01T09:22:23;102049.38;;;7.94;73.80
73748;BME280;62056;52.130;5.428;2023-02-01T09:24:50;102047.41;;;8.01;72.98
73748;BME280;62056;52.130;5.428;2023-02-01T09:27:20;102050.03;;;8.01;72.27
73748;BME280;62056;52.130;5.428;2023-02-01T09:29:47;102053.59;;;8.06;72.25
73748;BME280;62056;52.130;5.428;2023-02-01T09:32:20;102054.72;;;8.10;72.45
73748;BME280;62056;52.130;5.428;2023-02-01T09:34:49;102048.13;;;8.13;72.02
73748;BME280;62056;52.130;5.428;2023-02-01T09:37:17;102048.78;;;8.20;71.63
73748;BME280;62056;52.130;5.428;2023-02-01T09:39:44;102064.94;;;8.19;71.94
73748;BME280;62056;52.130;5.428;2023-02-01T09:45:33;102050.69;;;8.25;70.41
73748;BME280;62056;52.130;5.428;2023-02-01T09:48:20;102044.75;;;8.18;69.47
73748;BME280;62056;52.130;5.428;2023-02-01T09:50:55;102061.16;;;8.31;70.55
73748;BME280;62056;52.130;5.428;2023-02-01T09:53:38;102060.59;;;8.29;70.68
73748;BME280;62056;52.130;5.428;2023-02-01T09:56:23;102052.16;;;8.32;70.76
73748;BME280;62056;52.130;5.428;2023-02-01T10:01:48;102043.97;;;8.34;69.68
73748;BME280;62056;52.130;5.428;2023-02-01T10:04:17;102049.50;;;8.32;69.94
73748;BME280;62056;52.130;5.428;2023-02-01T10:07:06;102051.91;;;8.34;70.22
73748;BME280;62056;52.130;5.428;2023-02-01T10:20:57;102044.84;;;8.23;71.18
73748;BME280;62056;52.130;5.428;2023-02-01T10:26:24;102058.34;;;8.04;72.62
73748;BME280;62056;52.130;5.428;2023-02-01T10:28:53;102062.31;;;7.90;73.65
73748;BME280;62056;52.130;5.428;2023-02-01T10:31:25;102053.97;;;7.81;73.75
73748;BME280;62056;52.130;5.428;2023-02-01T10:33:57;102057.38;;;7.65;75.20
73748;BME280;62056;52.130;5.428;2023-02-01T10:36:28;102054.56;;;7.72;75.28
73748;BME280;62056;52.130;5.428;2023-02-01T10:38:59;102047.09;;;7.68;74.84
73748;BME280;62056;52.130;5.428;2023-02-01T10:41:38;102044.69;;;7.67;74.73
73748;BME280;62056;52.130;5.428;2023-02-01T10:44:15;102042.28;;;7.65;74.22
73748;BME280;62056;52.130;5.428;2023-02-01T10:46:43;102037.63;;;7.73;74.28
73748;BME280;62056;52.130;5.428;2023-02-01T10:49:43;102038.75;;;7.77;73.48
73748;BME280;62056;52.130;5.428;2023-02-01T10:52:20;102036.28;;;7.87;73.30
73748;BME280;62056;52.130;5.428;2023-02-01T10:54:52;102030.28;;;7.91;73.04
73748;BME280;62056;52.130;5.428;2023-02-01T10:57:25;102021.75;;;7.89;73.21
73748;BME280;62056;52.130;5.428;2023-02-01T10:59:52;102024.50;;;7.95;72.58
73748;BME280;62056;52.130;5.428;2023-02-01T11:02:30;102035.34;;;7.93;72.68
73748;BME280;62056;52.130;5.428;2023-02-01T11:05:07;102010.66;;;8.04;72.03
73748;BME280;62056;52.130;5.428;2023-02-01T11:07:39;102018.66;;;8.09;71.60
73748;BME280;62056;52.130;5.428;2023-02-01T11:10:35;102021.41;;;8.15;71.64
73748;BME280;62056;52.130;5.428;2023-02-01T11:13:03;102008.22;;;8.20;71.61
73748;BME280;62056;52.130;5.428;2023-02-01T11:15:30;102025.03;;;8.25;71.41
73748;BME280;62056;52.130;5.428;2023-02-01T11:18:14;102004.84;;;8.24;71.22
73748;BME280;62056;52.130;5.428;2023-02-01T11:20:41;102012.31;;;8.27;72.38
73748;BME280;62056;52.130;5.428;2023-02-01T11:23:16;102021.16;;;8.16;72.58
73748;BME280;62056;52.130;5.428;2023-02-01T11:25:51;102010.31;;;8.18;73.23
73748;BME280;62056;52.130;5.428;2023-02-01T11:28:23;102010.88;;;8.20;72.85
73748;BME280;62056;52.130;5.428;2023-02-01T11:30:51;102004.22;;;8.17;73.21
73748;BME280;62056;52.130;5.428;2023-02-01T11:33:24;102017.47;;;8.17;73.05
73748;BME280;62056;52.130;5.428;2023-02-01T11:35:54;102023.34;;;8.19;73.26
73748;BME280;62056;52.130;5.428;2023-02-01T11:40:50;102009.19;;;8.30;72.31
73748;BME280;62056;52.130;5.428;2023-02-01T11:43:25;102013.63;;;8.42;72.09
73748;BME280;62056;52.130;5.428;2023-02-01T11:45:56;102016.03;;;8.43;71.46
73748;BME280;62056;52.130;5.428;2023-02-01T11:48:25;101997.22;;;8.45;71.93
73748;BME280;62056;52.130;5.428;2023-02-01T11:53:41;101997.44;;;8.60;70.52
73748;BME280;62056;52.130;5.428;2023-02-01T11:56:37;101995.91;;;8.64;69.90
73748;BME280;62056;52.130;5.428;2023-02-01T11:59:29;101988.41;;;8.78;70.12
73748;BME280;62056;52.130;5.428;2023-02-01T12:07:22;101990.81;;;8.80;70.02
73748;BME280;62056;52.130;5.428;2023-02-01T12:10:04;101993.06;;;8.88;70.26
73748;BME280;62056;52.130;5.428;2023-02-01T12:42:28;101988.72;;;9.04;67.76
73748;BME280;62056;52.130;5.428;2023-02-01T12:45:11;101995.41;;;9.06;67.89
73748;BME280;62056;52.130;5.428;2023-02-01T12:47:45;101986.88;;;9.04;68.26
73748;BME280;62056;52.130;5.428;2023-02-01T12:50:20;101995.88;;;9.03;67.82
73748;BME280;62056;52.130;5.428;2023-02-01T12:52:53;101986.31;;;9.02;67.67
73748;BME280;62056;52.130;5.428;2023-02-01T12:55:23;101979.09;;;8.98;67.65
73748;BME280;62056;52.130;5.428;2023-02-01T12:58:03;101987.03;;;8.98;67.94
73748;BME280;62056;52.130;5.428;2023-02-01T13:00:40;101983.13;;;9.00;67.55
73748;BME280;62056;52.130;5.428;2023-02-01T13:11:42;101982.50;;;8.93;68.16
73748;BME280;62056;52.130;5.428;2023-02-01T13:17:10;101993.47;;;9.02;67.78
73748;BME280;62056;52.130;5.428;2023-02-01T13:19:51;101982.56;;;8.98;68.29
73748;BME280;62056;52.130;5.428;2023-02-01T13:22:30;101981.75;;;8.98;67.78
73748;BME280;62056;52.130;5.428;2023-02-01T13:25:00;101978.38;;;9.02;68.00
73748;BME280;62056;52.130;5.428;2023-02-01T13:27:29;101981.31;;;9.06;67.78
73748;BME280;62056;52.130;5.428;2023-02-01T13:30:05;101983.69;;;9.02;68.23
73748;BME280;62056;52.130;5.428;2023-02-01T13:33:11;101984.09;;;8.94;68.27
73748;BME280;62056;52.130;5.428;2023-02-01T13:44:14;101988.34;;;8.95;68.02
73748;BME280;62056;52.130;5.428;2023-02-01T13:46:45;102008.13;;;9.04;68.46
73748;BME280;62056;52.130;5.428;2023-02-01T13:49:22;102001.94;;;8.99;68.54
73748;BME280;62056;52.130;5.428;2023-02-01T13:51:53;101980.50;;;9.05;67.98
73748;BME280;62056;52.130;5.428;2023-02-01T13:54:37;101985.03;;;9.05;68.06
73748;BME280;62056;52.130;5.428;2023-02-01T13:57:31;101988.72;;;9.04;68.09
73748;BME280;62056;52.130;5.428;2023-02-01T14:03:19;101995.75;;;9.15;67.55
73748;BME280;62056;52.130;5.428;2023-02-01T14:08:36;101996.88;;;9.19;67.31
73748;BME280;62056;52.130;5.428;2023-02-01T14:11:04;101988.34;;;9.17;67.90
73748;BME280;62056;52.130;5.428;2023-02-01T14:24:04;101996.06;;;9.19;68.12
73748;BME280;62056;52.130;5.428;2023-02-01T14:26:46;101984.59;;;9.13;68.08
73748;BME280;62056;52.130;5.428;2023-02-01T14:32:00;101994.66;;;9.11;68.13
73748;BME280;62056;52.130;5.428;2023-02-01T14:34:37;101992.25;;;9.09;68.50
73748;BME280;62056;52.130;5.428;2023-02-01T14:44:44;101992.00;;;9.11;68.91
73748;BME280;62056;52.130;5.428;2023-02-01T14:47:26;102000.75;;;9.11;69.20
73748;BME280;62056;52.130;5.428;2023-02-01T14:52:37;101988.78;;;9.09;69.39
73748;BME280;62056;52.130;5.428;2023-02-01T14:57:40;101991.69;;;9.07;69.44
73748;BME280;62056;52.130;5.428;2023-02-01T15:00:19;101997.78;;;9.08;69.99
73748;BME280;62056;52.130;5.428;2023-02-01T15:02:48;101998.84;;;9.07;70.20
73748;BME280;62056;52.130;5.428;2023-02-01T15:05:30;101999.84;;;9.01;70.09
73748;BME280;62056;52.130;5.428;2023-02-01T15:08:03;102005.38;;;8.99;70.65
73748;BME280;62056;52.130;5.428;2023-02-01T15:10:41;102015.53;;;9.02;70.07
73748;BME280;62056;52.130;5.428;2023-02-01T15:13:19;102018.97;;;9.03;70.79
73748;BME280;62056;52.130;5.428;2023-02-01T15:16:11;102004.81;;;8.97;70.22
73748;BME280;62056;52.130;5.428;2023-02-01T15:18:39;102022.66;;;9.02;70.52
73748;BME280;62056;52.130;5.428;2023-02-01T15:21:15;102024.28;;;9.03;70.11
73748;BME280;62056;52.130;5.428;2023-02-01T15:24:13;102009.94;;;9.04;70.58
73748;BME280;62056;52.130;5.428;2023-02-01T15:26:42;102017.91;;;9.04;70.67
73748;BME280;62056;52.130;5.428;2023-02-01T15:29:11;102024.59;;;9.06;70.04
73748;BME280;62056;52.130;5.428;2023-02-01T15:31:45;102024.88;;;9.10;70.23
73748;BME280;62056;52.130;5.428;2023-02-01T15:34:13;102040.81;;;9.10;70.22
73748;BME280;62056;52.130;5.428;2023-02-01T15:36:40;102037.03;;;9.06;70.25
73748;BME280;62056;52.130;5.428;2023-02-01T15:39:27;102036.56;;;9.09;70.02
73748;BME280;62056;52.130;5.428;2023-02-01T15:41:56;102041.63;;;9.10;70.70